ARG1433 SABE-SAME
Flight info
| Callsign | ARG1433 |
|---|---|
| Flight time | 1h 32m |
| Altitude | 34000 |
| Route | PAL9 NEPIS DCT NIN UL405 PAPIR PAPIR3Q |
| Aircraft | B738/M-SDE2E3FGHIRWXY/LB1 |
Departure
| Time | 2026-04-30 21:05 |
|---|---|
| Airport | Aeroparque Jorge Newbery (SABE) |
Arrival
| Time | 2026-04-30 22:38 |
|---|---|
| Airport | Governor Francisco Gabrielli International Airport (SAME) |
| Time | Latitude | Longitude | Altitude | Speed | Heading |
|---|---|---|---|---|---|
| 2026-04-30 20:23 | -34.55688 | -58.41484 | 26 ft | 0 kts | 14° |
| 2026-04-30 20:57 | -34.55691 | -58.41485 | 32 ft | 3 kts | 14° |
| 2026-04-30 20:57 | -34.55715 | -58.41487 | 26 ft | 4 kts | 342° |
| 2026-04-30 20:57 | -34.55737 | -58.41470 | 32 ft | 4 kts | 307° |
| 2026-04-30 20:58 | -34.55744 | -58.41458 | 26 ft | 0 kts | 299° |
| 2026-04-30 21:01 | -34.55743 | -58.41459 | 26 ft | 1 kts | 299° |
| 2026-04-30 21:01 | -34.55728 | -58.41494 | 26 ft | 9 kts | 296° |
| 2026-04-30 21:01 | -34.55784 | -58.41624 | 28 ft | 9 kts | 277° |
| 2026-04-30 21:02 | -34.55747 | -58.41721 | 30 ft | 18 kts | 296° |
| 2026-04-30 21:02 | -34.55681 | -58.41849 | 26 ft | 17 kts | 304° |
| 2026-04-30 21:02 | -34.55615 | -58.41968 | 28 ft | 17 kts | 304° |
| 2026-04-30 21:02 | -34.55548 | -58.42081 | 29 ft | 16 kts | 306° |
| 2026-04-30 21:03 | -34.55483 | -58.42188 | 28 ft | 15 kts | 306° |
| 2026-04-30 21:03 | -34.55419 | -58.42290 | 26 ft | 15 kts | 307° |
| 2026-04-30 21:03 | -34.55367 | -58.42394 | 27 ft | 14 kts | 287° |
| 2026-04-30 21:03 | -34.55374 | -58.42494 | 31 ft | 9 kts | 227° |
| 2026-04-30 21:04 | -34.55413 | -58.42501 | 30 ft | 5 kts | 146° |
| 2026-04-30 21:04 | -34.55429 | -58.42466 | 26 ft | 5 kts | 122° |
| 2026-04-30 21:04 | -34.55570 | -58.42213 | 27 ft | 76 kts | 124° |
| 2026-04-30 21:05 | -34.56034 | -58.41376 | 27 ft | 160 kts | 124° |
| 2026-04-30 21:05 | -34.56744 | -58.40113 | 579 ft | 193 kts | 124° |
| 2026-04-30 21:05 | -34.57461 | -58.38751 | 1859 ft | 181 kts | 112° |
| 2026-04-30 21:05 | -34.57576 | -58.37291 | 3002 ft | 184 kts | 75° |
| 2026-04-30 21:06 | -34.56928 | -58.35853 | 3575 ft | 202 kts | 51° |
| 2026-04-30 21:06 | -34.56038 | -58.34484 | 3999 ft | 217 kts | 53° |
| 2026-04-30 21:06 | -34.55174 | -58.32850 | 4297 ft | 239 kts | 52° |
| 2026-04-30 21:06 | -34.53847 | -58.31642 | 4799 ft | 249 kts | 16° |
| 2026-04-30 21:07 | -34.52094 | -58.31657 | 5323 ft | 260 kts | 339° |
| 2026-04-30 21:07 | -34.50582 | -58.32861 | 6142 ft | 264 kts | 313° |
| 2026-04-30 21:07 | -34.49615 | -58.34746 | 7023 ft | 268 kts | 289° |
| 2026-04-30 21:07 | -34.49330 | -58.37003 | 7838 ft | 274 kts | 271° |
| 2026-04-30 21:08 | -34.49430 | -58.39330 | 8677 ft | 278 kts | 266° |
| 2026-04-30 21:08 | -34.49621 | -58.41690 | 9459 ft | 284 kts | 265° |
| 2026-04-30 21:08 | -34.49826 | -58.44066 | 10365 ft | 283 kts | 265° |
| 2026-04-30 21:08 | -34.50031 | -58.46531 | 10717 ft | 305 kts | 265° |
| 2026-04-30 21:09 | -34.50237 | -58.49163 | 10920 ft | 328 kts | 265° |
| 2026-04-30 21:09 | -34.50448 | -58.52010 | 11226 ft | 346 kts | 266° |
| 2026-04-30 21:09 | -34.50657 | -58.54934 | 11909 ft | 350 kts | 266° |
| 2026-04-30 21:09 | -34.50860 | -58.57870 | 12758 ft | 349 kts | 266° |
| 2026-04-30 21:10 | -34.51058 | -58.60804 | 13536 ft | 349 kts | 266° |
| 2026-04-30 21:10 | -34.51253 | -58.63744 | 14272 ft | 351 kts | 266° |
| 2026-04-30 21:10 | -34.51446 | -58.66702 | 14950 ft | 353 kts | 266° |
| 2026-04-30 21:10 | -34.51639 | -58.69676 | 15684 ft | 354 kts | 266° |
| 2026-04-30 21:11 | -34.51831 | -58.72659 | 16386 ft | 355 kts | 266° |
| 2026-04-30 21:11 | -34.52023 | -58.75658 | 17010 ft | 357 kts | 266° |
| 2026-04-30 21:11 | -34.52215 | -58.78650 | 17666 ft | 358 kts | 266° |
| 2026-04-30 21:11 | -34.52405 | -58.81675 | 18300 ft | 359 kts | 266° |
| 2026-04-30 21:12 | -34.52596 | -58.84704 | 18884 ft | 361 kts | 266° |
| 2026-04-30 21:12 | -34.52788 | -58.87750 | 19447 ft | 363 kts | 266° |
| 2026-04-30 21:12 | -34.52979 | -58.90813 | 19980 ft | 366 kts | 266° |
| 2026-04-30 21:12 | -34.53172 | -58.93904 | 20504 ft | 368 kts | 266° |
| 2026-04-30 21:13 | -34.53365 | -58.97006 | 20996 ft | 371 kts | 266° |
| 2026-04-30 21:13 | -34.53559 | -59.00134 | 21479 ft | 373 kts | 266° |
| 2026-04-30 21:13 | -34.53752 | -59.03277 | 21983 ft | 374 kts | 267° |
| 2026-04-30 21:13 | -34.53943 | -59.06387 | 22453 ft | 376 kts | 267° |
| 2026-04-30 21:14 | -34.54140 | -59.09601 | 22879 ft | 378 kts | 267° |
| 2026-04-30 21:14 | -34.54332 | -59.12753 | 23264 ft | 381 kts | 267° |
| 2026-04-30 21:14 | -34.54526 | -59.15971 | 23660 ft | 383 kts | 267° |
| 2026-04-30 21:14 | -34.54721 | -59.19199 | 24077 ft | 385 kts | 268° |
| 2026-04-30 21:15 | -34.54915 | -59.22445 | 24461 ft | 387 kts | 268° |
| 2026-04-30 21:15 | -34.55110 | -59.25706 | 24842 ft | 388 kts | 268° |
| 2026-04-30 21:15 | -34.55305 | -59.28982 | 25208 ft | 390 kts | 268° |
| 2026-04-30 21:15 | -34.55500 | -59.32273 | 25545 ft | 392 kts | 268° |
| 2026-04-30 21:16 | -34.55694 | -59.35581 | 25873 ft | 394 kts | 268° |
| 2026-04-30 21:16 | -34.55889 | -59.38907 | 26200 ft | 396 kts | 268° |
| 2026-04-30 21:16 | -34.56085 | -59.42250 | 26555 ft | 397 kts | 268° |
| 2026-04-30 21:16 | -34.56281 | -59.45607 | 26827 ft | 400 kts | 268° |
| 2026-04-30 21:17 | -34.56476 | -59.48975 | 27138 ft | 402 kts | 268° |
| 2026-04-30 21:17 | -34.56672 | -59.52372 | 27447 ft | 403 kts | 268° |
| 2026-04-30 21:17 | -34.56867 | -59.55768 | 27730 ft | 405 kts | 268° |
| 2026-04-30 21:17 | -34.57061 | -59.59180 | 28045 ft | 406 kts | 268° |
| 2026-04-30 21:18 | -34.57144 | -59.62598 | 28416 ft | 404 kts | 272° |
| 2026-04-30 21:18 | -34.57091 | -59.65997 | 28847 ft | 402 kts | 272° |
| 2026-04-30 21:18 | -34.57011 | -59.69373 | 29274 ft | 400 kts | 273° |
| 2026-04-30 21:18 | -34.56927 | -59.72750 | 29678 ft | 399 kts | 273° |
| 2026-04-30 21:19 | -34.56848 | -59.76106 | 30102 ft | 397 kts | 273° |
| 2026-04-30 21:19 | -34.56776 | -59.79411 | 30532 ft | 395 kts | 273° |
| 2026-04-30 21:19 | -34.56706 | -59.82747 | 30890 ft | 395 kts | 272° |
| 2026-04-30 21:19 | -34.56640 | -59.86071 | 31216 ft | 395 kts | 273° |
| 2026-04-30 21:20 | -34.56574 | -59.89398 | 31592 ft | 393 kts | 273° |
| 2026-04-30 21:20 | -34.56509 | -59.92702 | 31995 ft | 391 kts | 273° |
| 2026-04-30 21:20 | -34.56444 | -59.95996 | 32331 ft | 390 kts | 273° |
| 2026-04-30 21:20 | -34.56378 | -59.99293 | 32634 ft | 390 kts | 273° |
| 2026-04-30 21:21 | -34.56311 | -60.02588 | 32940 ft | 390 kts | 273° |
| 2026-04-30 21:21 | -34.56243 | -60.05878 | 33218 ft | 390 kts | 273° |
| 2026-04-30 21:21 | -34.56105 | -60.12400 | 33830 ft | 388 kts | 273° |
| 2026-04-30 21:22 | -34.56034 | -60.15676 | 33927 ft | 392 kts | 273° |
| 2026-04-30 21:23 | -34.55743 | -60.28881 | 33934 ft | 387 kts | 273° |
| 2026-04-30 21:23 | -34.55515 | -60.38665 | 33949 ft | 390 kts | 273° |
| 2026-04-30 21:24 | -34.55357 | -60.45330 | 33942 ft | 398 kts | 273° |
| 2026-04-30 21:24 | -34.55194 | -60.52046 | 33931 ft | 397 kts | 273° |
| 2026-04-30 21:25 | -34.54944 | -60.62088 | 33935 ft | 397 kts | 273° |
| 2026-04-30 21:26 | -34.54687 | -60.72074 | 33934 ft | 396 kts | 273° |
| 2026-04-30 21:27 | -34.54421 | -60.82093 | 33922 ft | 396 kts | 274° |
| 2026-04-30 21:27 | -34.54242 | -60.88764 | 33909 ft | 395 kts | 274° |
| 2026-04-30 21:28 | -34.53367 | -60.98664 | 33902 ft | 394 kts | 282° |
| 2026-04-30 21:29 | -34.51799 | -61.08438 | 33895 ft | 393 kts | 281° |
| 2026-04-30 21:30 | -34.49263 | -61.24698 | 33890 ft | 394 kts | 281° |
| 2026-04-30 21:31 | -34.46704 | -61.41026 | 33890 ft | 395 kts | 282° |
| 2026-04-30 21:32 | -34.45153 | -61.50855 | 33879 ft | 396 kts | 282° |
| 2026-04-30 21:32 | -34.44288 | -61.56305 | 33879 ft | 397 kts | 282° |
| 2026-04-30 21:33 | -34.42704 | -61.66171 | 33875 ft | 398 kts | 282° |
| 2026-04-30 21:34 | -34.41644 | -61.72760 | 33877 ft | 399 kts | 282° |
| 2026-04-30 21:34 | -34.40042 | -61.82666 | 33873 ft | 400 kts | 282° |
| 2026-04-30 21:35 | -34.38975 | -61.89240 | 33870 ft | 400 kts | 282° |
| 2026-04-30 21:35 | -34.37898 | -61.95855 | 33871 ft | 400 kts | 282° |
| 2026-04-30 21:36 | -34.36815 | -62.02479 | 33865 ft | 401 kts | 282° |
| 2026-04-30 21:37 | -34.34637 | -62.15729 | 33861 ft | 401 kts | 282° |
| 2026-04-30 21:37 | -34.33546 | -62.22315 | 33860 ft | 401 kts | 282° |
| 2026-04-30 21:38 | -34.32447 | -62.28934 | 33855 ft | 401 kts | 282° |
| 2026-04-30 21:38 | -34.31347 | -62.35547 | 33852 ft | 401 kts | 282° |
| 2026-04-30 21:39 | -34.30243 | -62.42155 | 33851 ft | 400 kts | 282° |
| 2026-04-30 21:39 | -34.29139 | -62.48742 | 33851 ft | 400 kts | 282° |
| 2026-04-30 21:40 | -34.28030 | -62.55329 | 33850 ft | 399 kts | 282° |
| 2026-04-30 21:40 | -34.26920 | -62.61906 | 33844 ft | 399 kts | 282° |
| 2026-04-30 21:41 | -34.25807 | -62.68479 | 33841 ft | 398 kts | 282° |
| 2026-04-30 21:41 | -34.24694 | -62.75031 | 33843 ft | 398 kts | 282° |
| 2026-04-30 21:42 | -34.23577 | -62.81580 | 33842 ft | 397 kts | 282° |
| 2026-04-30 21:42 | -34.22457 | -62.88121 | 33839 ft | 397 kts | 283° |
| 2026-04-30 21:43 | -34.21344 | -62.94602 | 33834 ft | 397 kts | 283° |
| 2026-04-30 21:43 | -34.20219 | -63.01136 | 33833 ft | 397 kts | 283° |
| 2026-04-30 21:44 | -34.19093 | -63.07670 | 33833 ft | 397 kts | 283° |
| 2026-04-30 21:44 | -34.17960 | -63.14195 | 33834 ft | 397 kts | 283° |
| 2026-04-30 21:45 | -34.16823 | -63.20725 | 33834 ft | 397 kts | 283° |
| 2026-04-30 21:45 | -34.15683 | -63.27263 | 33823 ft | 398 kts | 283° |
| 2026-04-30 21:46 | -34.14536 | -63.33817 | 33825 ft | 399 kts | 283° |
| 2026-04-30 21:46 | -34.13343 | -63.40319 | 33812 ft | 400 kts | 284° |
| 2026-04-30 21:47 | -34.12044 | -63.46848 | 33816 ft | 400 kts | 284° |
| 2026-04-30 21:47 | -34.10740 | -63.53388 | 33813 ft | 401 kts | 284° |
| 2026-04-30 21:48 | -34.09441 | -63.59940 | 33818 ft | 402 kts | 284° |
| 2026-04-30 21:48 | -34.08138 | -63.66505 | 33813 ft | 402 kts | 284° |
| 2026-04-30 21:49 | -34.06834 | -63.73074 | 33811 ft | 403 kts | 284° |
| 2026-04-30 21:49 | -34.05525 | -63.79648 | 33818 ft | 403 kts | 284° |
| 2026-04-30 21:50 | -34.04218 | -63.86184 | 33814 ft | 404 kts | 284° |
| 2026-04-30 21:50 | -34.02901 | -63.92769 | 33814 ft | 404 kts | 284° |
| 2026-04-30 21:51 | -34.01581 | -63.99360 | 33812 ft | 405 kts | 284° |
| 2026-04-30 21:51 | -34.00256 | -64.05959 | 33808 ft | 405 kts | 284° |
| 2026-04-30 21:52 | -33.98928 | -64.12554 | 33804 ft | 405 kts | 284° |
| 2026-04-30 21:52 | -33.97596 | -64.19148 | 33806 ft | 404 kts | 284° |
| 2026-04-30 21:53 | -33.96263 | -64.25729 | 33807 ft | 404 kts | 284° |
| 2026-04-30 21:53 | -33.94927 | -64.32304 | 33802 ft | 404 kts | 284° |
| 2026-04-30 21:54 | -33.93590 | -64.38867 | 33804 ft | 404 kts | 284° |
| 2026-04-30 21:54 | -33.92256 | -64.45396 | 33804 ft | 403 kts | 285° |
| 2026-04-30 21:55 | -33.90914 | -64.51945 | 33806 ft | 403 kts | 285° |
| 2026-04-30 21:55 | -33.89566 | -64.58493 | 33804 ft | 403 kts | 285° |
| 2026-04-30 21:56 | -33.88215 | -64.65042 | 33806 ft | 403 kts | 285° |
| 2026-04-30 21:56 | -33.86863 | -64.71579 | 33807 ft | 403 kts | 285° |
| 2026-04-30 21:57 | -33.85508 | -64.78116 | 33804 ft | 403 kts | 285° |
| 2026-04-30 21:57 | -33.84146 | -64.84659 | 33805 ft | 403 kts | 285° |
| 2026-04-30 21:58 | -33.82786 | -64.91163 | 33808 ft | 403 kts | 285° |
| 2026-04-30 21:58 | -33.81416 | -64.97712 | 33806 ft | 404 kts | 285° |
| 2026-04-30 21:59 | -33.80038 | -65.04265 | 33805 ft | 404 kts | 285° |
| 2026-04-30 22:00 | -33.77967 | -65.14087 | 33809 ft | 404 kts | 285° |
| 2026-04-30 22:00 | -33.75887 | -65.23916 | 33805 ft | 404 kts | 285° |
| 2026-04-30 22:01 | -33.74495 | -65.30471 | 33802 ft | 405 kts | 285° |
| 2026-04-30 22:01 | -33.73096 | -65.37042 | 33805 ft | 406 kts | 285° |
| 2026-04-30 22:02 | -33.71623 | -65.43586 | 33804 ft | 406 kts | 287° |
| 2026-04-30 22:02 | -33.70069 | -65.50117 | 33805 ft | 406 kts | 287° |
| 2026-04-30 22:03 | -33.68516 | -65.56650 | 33806 ft | 407 kts | 287° |
| 2026-04-30 22:03 | -33.66979 | -65.63136 | 33804 ft | 407 kts | 287° |
| 2026-04-30 22:04 | -33.65432 | -65.69674 | 33808 ft | 407 kts | 287° |
| 2026-04-30 22:05 | -33.63101 | -65.79488 | 33805 ft | 407 kts | 287° |
| 2026-04-30 22:05 | -33.61544 | -65.86026 | 33810 ft | 407 kts | 287° |
| 2026-04-30 22:06 | -33.59985 | -65.92555 | 33816 ft | 407 kts | 287° |
| 2026-04-30 22:06 | -33.57652 | -66.02296 | 33815 ft | 407 kts | 287° |
| 2026-04-30 22:07 | -33.56086 | -66.08818 | 33828 ft | 406 kts | 287° |
| 2026-04-30 22:07 | -33.54517 | -66.15330 | 33825 ft | 406 kts | 287° |
| 2026-04-30 22:08 | -33.52945 | -66.21837 | 33823 ft | 407 kts | 287° |
| 2026-04-30 22:08 | -33.51368 | -66.28350 | 33824 ft | 407 kts | 287° |
| 2026-04-30 22:09 | -33.49788 | -66.34865 | 33822 ft | 407 kts | 287° |
| 2026-04-30 22:09 | -33.48081 | -66.41285 | 33827 ft | 407 kts | 290° |
| 2026-04-30 22:10 | -33.46035 | -66.47613 | 33826 ft | 407 kts | 291° |
| 2026-04-30 22:10 | -33.43991 | -66.53945 | 33823 ft | 407 kts | 291° |
| 2026-04-30 22:11 | -33.41153 | -66.63540 | 33834 ft | 407 kts | 287° |
| 2026-04-30 22:12 | -33.39579 | -66.70060 | 33831 ft | 408 kts | 287° |
| 2026-04-30 22:12 | -33.38807 | -66.73282 | 33612 ft | 410 kts | 287° |
| 2026-04-30 22:12 | -33.38017 | -66.76549 | 33280 ft | 405 kts | 287° |
| 2026-04-30 22:12 | -33.37231 | -66.79770 | 32808 ft | 400 kts | 287° |
| 2026-04-30 22:13 | -33.36440 | -66.82988 | 32366 ft | 396 kts | 287° |
| 2026-04-30 22:13 | -33.35674 | -66.86094 | 31919 ft | 393 kts | 287° |
| 2026-04-30 22:13 | -33.34903 | -66.89212 | 31470 ft | 389 kts | 287° |
| 2026-04-30 22:13 | -33.34134 | -66.92313 | 31026 ft | 386 kts | 287° |
| 2026-04-30 22:14 | -33.33372 | -66.95383 | 30576 ft | 384 kts | 288° |
| 2026-04-30 22:14 | -33.32616 | -66.98428 | 30140 ft | 380 kts | 287° |
| 2026-04-30 22:14 | -33.31866 | -67.01444 | 29704 ft | 378 kts | 288° |
| 2026-04-30 22:14 | -33.31118 | -67.04445 | 29267 ft | 375 kts | 288° |
| 2026-04-30 22:15 | -33.30377 | -67.07418 | 28814 ft | 372 kts | 288° |
| 2026-04-30 22:15 | -33.29641 | -67.10369 | 28369 ft | 369 kts | 288° |
| 2026-04-30 22:15 | -33.28911 | -67.13294 | 27926 ft | 366 kts | 288° |
| 2026-04-30 22:15 | -33.28183 | -67.16204 | 27486 ft | 364 kts | 288° |
| 2026-04-30 22:16 | -33.27461 | -67.19091 | 27048 ft | 361 kts | 288° |
| 2026-04-30 22:16 | -33.26743 | -67.21957 | 26614 ft | 359 kts | 288° |
| 2026-04-30 22:17 | -33.24538 | -67.30371 | 25333 ft | 351 kts | 289° |
| 2026-04-30 22:17 | -33.23744 | -67.33133 | 24906 ft | 349 kts | 289° |
| 2026-04-30 22:17 | -33.22172 | -67.38584 | 24060 ft | 345 kts | 289° |
| 2026-04-30 22:18 | -33.21396 | -67.41291 | 23642 ft | 344 kts | 289° |
| 2026-04-30 22:18 | -33.19862 | -67.46667 | 22811 ft | 340 kts | 289° |
| 2026-04-30 22:19 | -33.18346 | -67.51978 | 21991 ft | 336 kts | 289° |
| 2026-04-30 22:19 | -33.17595 | -67.54612 | 21584 ft | 334 kts | 289° |
| 2026-04-30 22:19 | -33.16103 | -67.59837 | 20777 ft | 331 kts | 289° |
| 2026-04-30 22:20 | -33.15371 | -67.62396 | 20382 ft | 329 kts | 289° |
| 2026-04-30 22:20 | -33.13896 | -67.67547 | 19583 ft | 326 kts | 288° |
| 2026-04-30 22:20 | -33.13164 | -67.70102 | 19189 ft | 325 kts | 288° |
| 2026-04-30 22:21 | -33.12435 | -67.72643 | 18796 ft | 323 kts | 288° |
| 2026-04-30 22:21 | -33.11725 | -67.75181 | 18402 ft | 322 kts | 285° |
| 2026-04-30 22:21 | -33.11382 | -67.77806 | 18010 ft | 320 kts | 275° |
| 2026-04-30 22:21 | -33.11226 | -67.80451 | 17625 ft | 318 kts | 274° |
| 2026-04-30 22:22 | -33.11070 | -67.83080 | 17235 ft | 317 kts | 274° |
| 2026-04-30 22:22 | -33.10909 | -67.85698 | 16849 ft | 316 kts | 275° |
| 2026-04-30 22:22 | -33.10739 | -67.88308 | 16465 ft | 315 kts | 275° |
| 2026-04-30 22:22 | -33.10564 | -67.90903 | 16077 ft | 314 kts | 275° |
| 2026-04-30 22:23 | -33.10446 | -67.92618 | 15821 ft | 313 kts | 275° |
| 2026-04-30 22:23 | -33.10204 | -67.96075 | 15323 ft | 311 kts | 275° |
| 2026-04-30 22:23 | -33.10083 | -67.97774 | 15060 ft | 311 kts | 275° |
| 2026-04-30 22:23 | -33.09837 | -68.01199 | 14553 ft | 309 kts | 275° |
| 2026-04-30 22:24 | -33.09715 | -68.02894 | 14308 ft | 308 kts | 275° |
| 2026-04-30 22:24 | -33.09471 | -68.06262 | 13813 ft | 307 kts | 275° |
| 2026-04-30 22:24 | -33.09346 | -68.07975 | 13565 ft | 306 kts | 275° |
| 2026-04-30 22:24 | -33.09162 | -68.10503 | 13194 ft | 305 kts | 275° |
| 2026-04-30 22:25 | -33.08981 | -68.12984 | 12833 ft | 304 kts | 275° |
| 2026-04-30 22:25 | -33.08797 | -68.15487 | 12550 ft | 300 kts | 275° |
| 2026-04-30 22:25 | -33.08617 | -68.17926 | 12424 ft | 291 kts | 275° |
| 2026-04-30 22:25 | -33.08442 | -68.20297 | 12290 ft | 283 kts | 275° |
| 2026-04-30 22:26 | -33.08108 | -68.24844 | 11980 ft | 269 kts | 275° |
| 2026-04-30 22:26 | -33.07942 | -68.27063 | 11692 ft | 267 kts | 275° |
| 2026-04-30 22:26 | -33.07777 | -68.29263 | 11424 ft | 266 kts | 276° |
| 2026-04-30 22:27 | -33.07612 | -68.31445 | 11152 ft | 263 kts | 276° |
| 2026-04-30 22:27 | -33.07450 | -68.33616 | 10876 ft | 264 kts | 276° |
| 2026-04-30 22:27 | -33.07115 | -68.38076 | 10323 ft | 276 kts | 277° |
| 2026-04-30 22:28 | -33.06764 | -68.42708 | 9712 ft | 281 kts | 277° |
| 2026-04-30 22:28 | -33.06590 | -68.45021 | 9406 ft | 280 kts | 277° |
| 2026-04-30 22:29 | -33.06067 | -68.51904 | 8502 ft | 276 kts | 278° |
| 2026-04-30 22:29 | -33.05889 | -68.54184 | 8266 ft | 273 kts | 278° |
| 2026-04-30 22:30 | -33.05263 | -68.62685 | 7829 ft | 250 kts | 275° |
| 2026-04-30 22:31 | -33.05228 | -68.68927 | 7128 ft | 244 kts | 274° |
| 2026-04-30 22:32 | -33.05183 | -68.74540 | 6405 ft | 208 kts | 275° |
| 2026-04-30 22:32 | -33.05146 | -68.77856 | 6214 ft | 204 kts | 276° |
| 2026-04-30 22:33 | -33.02365 | -68.79722 | 5648 ft | 182 kts | 4° |
| 2026-04-30 22:33 | -32.99797 | -68.79628 | 5248 ft | 185 kts | 4° |
| 2026-04-30 22:34 | -32.96125 | -68.79483 | 4604 ft | 158 kts | 1° |
| 2026-04-30 22:35 | -32.93987 | -68.79449 | 4194 ft | 153 kts | 1° |
| 2026-04-30 22:36 | -32.89685 | -68.79385 | 3362 ft | 154 kts | 1° |
| 2026-04-30 22:36 | -32.88616 | -68.79370 | 3166 ft | 153 kts | 0° |
| 2026-04-30 22:37 | -32.85433 | -68.79338 | 2558 ft | 149 kts | 0° |
| 2026-04-30 22:37 | -32.84409 | -68.79316 | 2381 ft | 146 kts | 1° |
| 2026-04-30 22:37 | -32.82883 | -68.79285 | 2328 ft | 51 kts | 1° |
| 2026-04-30 22:38 | -32.82547 | -68.79317 | 2327 ft | 12 kts | 289° |
| 2026-04-30 22:38 | -32.82592 | -68.79435 | 2328 ft | 4 kts | 226° |
| 2026-04-30 22:39 | -32.82606 | -68.79452 | 2328 ft | 3 kts | 226° |
| 2026-04-30 22:39 | -32.82642 | -68.79499 | 2326 ft | 3 kts | 232° |
| 2026-04-30 22:40 | -32.82673 | -68.79680 | 2325 ft | 4 kts | 271° |
| 2026-04-30 22:41 | -32.82723 | -68.79731 | 2325 ft | 4 kts | 275° |
| 2026-04-30 22:41 | -32.82722 | -68.79771 | 2325 ft | 0 kts | 270° |